Fairborn, OH

4:57 AM EDT on April 21, 2015 (GMT -0400)
Wright-Patterson Air Force Base | | Change Station
CLOSE
Current Station
Airport
Location: Wright-Patt AFB,
Elevation: 823 ft
Nearby Weather Stations
Active Advisory: Wind Advisory

Elev 823 ft 39.83 °N, 84.05 °W | Updated 59 minutes ago

Mostly Cloudy
Mostly Cloudy
45 °F
Feels Like 38 °F
N
14
Wind Variable Wind from SW

Today
High -- | Low -- °F
--% Chance of Precip.
Yesterday
High -- | Low -- °F
Precip. -- in
6:50 AM 8:20 PM
Waxing Crescent, 9% visible
Pressure 29.78 in
Visibility 10.0 miles
Clouds Mostly Cloudy 10000 ft
Windchill 38 °F
Dew Point 36 °F
Humidity 71%
Rainfall 0.00 in
Snow Depth Not available.
UV 0 out of 12
Pollen 7.40 out of 12
Air Quality Not available.
Flu Activity Regional
METAR KFFO 210758Z 22012KT 10SM BKN100 07/02 A2976 RMK AO2A SLP082 T00720022

More Conditions Fewer Conditions

Pressure 29.78 in
Visibility 10.0 miles
Clouds Mostly Cloudy 10000 ft
Windchill 38 °F
Dew Point 36 °F
Humidity 71%
Rainfall 0.00 in
Snow Depth Not available.
UV 0 out of 12
Pollen 7.40 out of 12
Air Quality Not available.
Flu Activity Regional
METAR KFFO 210758Z 22012KT 10SM BKN100 07/02 A2976 RMK AO2A SLP082 T00720022

More Conditions Fewer Conditions

10-Day Weather Forecast

Almanac

Astronomy

Apr. 21, 2015 Rise Set
Actual Time
Civil Twilight
Nautical Twilight
Astronomical Twilight
Moon
Length of Visible Light
Length of Day
Tomorrow will be .
, % of the Moon is Illuminated

Today's Extremes

State Highs State Lows

Community

WunderPhotos

Upload Photos

1,815,329 photos uploaded!

WunderBlogs® & News

Nearby

Air Quality

  Air Quality AQ Index Pollutant
Not available.

Snow Depth

Station Depth Elevation

Earthquake Activity

City Distance Mag. Time & Date
Minimum magnitude displayed is 2.5.

Coastal Water Temperatures

Place Temperature

Stations

Nearby Weather Stations

Station Location Temp. Windchill Dew Point Humidity Wind Precip. Elev Updated Type
                   
Wind Advisory
Statement as of 3:13 AM EDT on April 21, 2015

... Wind Advisory remains in effect from 11 am this morning to
8 PM EDT this evening...

* winds... winds today will be out of west... sustained at 20 to 30
mph... with gusts as high as 40 to 50 mph.

* Impacts... scattered tree and power line damage is possible
along with some minor property damage in the highest gusts.
Winds this strong can make driving difficult... especially for
high profile vehicles.

Precautionary/preparedness actions...

A Wind Advisory is issued when sustained winds are forecast to be
31 to 39 mph or gusts will range between 46 and 57 mph. Winds of
these magnitudes may cause minor property damage without extra
precautions. Motorists in high profile vehicles should use
caution until the winds subside.